createdAt,value
2023-03-08T00:01:30.258Z,93.04
2023-03-08T00:04:01.054Z,92.66
2023-03-08T00:06:30.194Z,92.09
2023-03-08T00:08:58.274Z,91.74
2023-03-08T00:11:26.736Z,91.30
2023-03-08T00:13:56.119Z,91.50
2023-03-08T00:16:24.361Z,91.72
2023-03-08T00:18:52.018Z,92.07
2023-03-08T00:21:20.190Z,91.08
2023-03-08T00:23:48.180Z,88.36
2023-03-08T00:26:15.993Z,88.11
2023-03-08T00:28:43.796Z,88.99
2023-03-08T00:31:14.620Z,88.89
2023-03-08T00:33:42.542Z,88.33
2023-03-08T00:36:15.260Z,87.19
2023-03-08T00:38:43.775Z,86.33
2023-03-08T00:41:11.695Z,86.72
2023-03-08T00:43:39.354Z,87.07
2023-03-08T00:46:07.217Z,87.83
2023-03-08T00:48:36.131Z,88.04
2023-03-08T00:51:03.807Z,88.50
2023-03-08T00:53:31.676Z,88.46
2023-03-08T00:56:00.823Z,89.12
2023-03-08T00:58:30.559Z,88.47
2023-03-08T01:00:58.828Z,89.29
2023-03-08T01:03:26.914Z,89.32
2023-03-08T01:05:59.001Z,88.97
2023-03-08T01:08:27.564Z,89.34
2023-03-08T01:10:58.045Z,88.71
2023-03-08T01:13:27.138Z,88.34
2023-03-08T01:15:54.829Z,87.95
2023-03-08T01:18:22.694Z,88.91
2023-03-08T01:21:00.486Z,88.01
2023-03-08T01:23:36.755Z,88.40
2023-03-08T01:26:06.937Z,87.25
2023-03-08T01:28:37.312Z,86.84
2023-03-08T01:31:06.415Z,87.03
2023-03-08T01:33:34.089Z,85.28
2023-03-08T01:36:05.788Z,85.37
2023-03-08T01:38:34.017Z,83.66
2023-03-08T01:41:03.433Z,83.73
2023-03-08T01:43:32.551Z,84.48
2023-03-08T01:46:11.710Z,85.13
2023-03-08T01:48:43.632Z,85.46
2023-03-08T01:51:16.028Z,86.99
2023-03-08T01:53:44.778Z,88.44
2023-03-08T01:56:16.584Z,90.53
2023-03-08T01:58:47.863Z,90.27
2023-03-08T02:01:16.146Z,89.17
2023-03-08T02:03:43.704Z,89.49
2023-03-08T02:06:14.504Z,89.74
2023-03-08T02:08:42.306Z,89.30
2023-03-08T02:11:10.688Z,89.35
2023-03-08T02:13:39.786Z,89.38
2023-03-08T02:16:11.208Z,90.06
2023-03-08T02:18:38.924Z,91.89
2023-03-08T02:21:07.980Z,90.43
2023-03-08T02:23:36.877Z,91.05
2023-03-08T02:26:06.155Z,90.43
2023-03-08T02:28:34.446Z,90.24
2023-03-08T02:31:02.343Z,89.97
2023-03-08T02:33:30.525Z,89.47
2023-03-08T02:35:58.128Z,90.16
2023-03-08T02:38:25.994Z,91.35
2023-03-08T02:40:54.965Z,91.55
2023-03-08T02:43:22.626Z,91.34
2023-03-08T02:45:50.451Z,91.83
2023-03-08T02:48:18.672Z,90.68
2023-03-08T02:50:46.263Z,90.31
2023-03-08T02:53:13.977Z,89.70
2023-03-08T02:55:41.526Z,90.33
2023-03-08T02:58:11.730Z,90.62
2023-03-08T03:00:40.087Z,90.70
2023-03-08T03:03:07.612Z,91.54
2023-03-08T03:05:35.234Z,92.04
2023-03-08T03:08:02.847Z,91.25
2023-03-08T03:10:30.642Z,93.33
2023-03-08T03:12:58.433Z,92.74
2023-03-08T03:15:27.353Z,92.11
2023-03-08T03:17:55.935Z,91.61
2023-03-08T03:20:23.529Z,92.10
2023-03-08T03:22:51.176Z,92.32
2023-03-08T03:25:18.752Z,93.11
2023-03-08T03:27:46.353Z,93.07
2023-03-08T03:30:14.407Z,93.16
2023-03-08T03:32:43.441Z,91.52
2023-03-08T03:35:11.413Z,91.25
2023-03-08T03:37:39.007Z,89.27
2023-03-08T03:40:07.734Z,88.92
2023-03-08T03:42:35.418Z,89.37
2023-03-08T03:45:03.458Z,89.85
2023-03-08T03:47:31.180Z,88.45
2023-03-08T03:50:00.140Z,89.92
2023-03-08T03:52:27.900Z,91.00
2023-03-08T03:54:56.683Z,89.86
2023-03-08T03:57:24.311Z,90.10
2023-03-08T03:59:51.910Z,90.86
2023-03-08T04:02:19.529Z,91.17
2023-03-08T04:04:50.354Z,89.83
2023-03-08T04:07:19.338Z,90.06
2023-03-08T04:09:47.580Z,91.17
2023-03-08T04:12:15.353Z,92.14
2023-03-08T04:14:43.101Z,92.22
2023-03-08T04:17:11.638Z,93.79
2023-03-08T04:19:39.342Z,93.78
2023-03-08T04:22:06.975Z,92.33
2023-03-08T04:24:36.112Z,91.20
2023-03-08T04:27:03.819Z,91.40
2023-03-08T04:29:31.477Z,90.37
2023-03-08T04:32:00.290Z,90.68
2023-03-08T04:34:28.383Z,89.80
2023-03-08T04:36:56.132Z,90.40
2023-03-08T04:39:23.819Z,88.70
2023-03-08T04:41:52.742Z,87.90
2023-03-08T04:44:20.366Z,88.21
2023-03-08T04:46:48.054Z,87.78
2023-03-08T04:49:15.653Z,87.15
2023-03-08T04:51:43.292Z,88.11
2023-03-08T04:54:10.988Z,87.83
2023-03-08T04:56:38.557Z,87.98
2023-03-08T04:59:07.669Z,89.08
2023-03-08T05:01:35.263Z,88.14
2023-03-08T05:04:02.871Z,88.91
2023-03-08T05:06:30.516Z,87.19
2023-03-08T05:08:58.158Z,86.91
2023-03-08T05:11:27.711Z,87.67
2023-03-08T05:13:56.007Z,87.67
2023-03-08T05:16:26.367Z,86.47
2023-03-08T05:18:54.320Z,87.71
2023-03-08T05:21:23.580Z,88.49
2023-03-08T05:23:51.197Z,89.41
2023-03-08T05:26:19.713Z,89.66
2023-03-08T05:28:47.344Z,89.41
2023-03-08T05:31:17.329Z,88.61
2023-03-08T05:33:49.871Z,88.21
2023-03-08T05:36:19.381Z,88.04
2023-03-08T05:38:48.045Z,86.62
2023-03-08T05:41:17.283Z,85.99
2023-03-08T05:43:45.231Z,84.04
2023-03-08T05:46:15.104Z,83.39
2023-03-08T05:48:42.947Z,82.70
2023-03-08T05:51:13.579Z,82.72
2023-03-08T05:53:41.529Z,83.08
2023-03-08T05:56:10.729Z,83.35
2023-03-08T05:58:38.611Z,85.22
2023-03-08T06:01:13.887Z,84.41
2023-03-08T06:03:41.837Z,85.17
2023-03-08T06:06:11.917Z,84.83
2023-03-08T06:08:41.573Z,85.29
2023-03-08T06:11:10.219Z,86.83
2023-03-08T06:13:38.511Z,87.17
2023-03-08T06:16:07.197Z,87.11
2023-03-08T06:18:37.121Z,87.95
2023-03-08T06:21:06.751Z,86.62
2023-03-08T06:23:35.970Z,86.41
2023-03-08T06:26:07.254Z,86.59
2023-03-08T06:28:35.445Z,88.20
2023-03-08T06:31:03.335Z,88.36
2023-03-08T06:33:33.761Z,88.30
2023-03-08T06:36:03.634Z,89.62
2023-03-08T06:38:33.519Z,89.58
2023-03-08T06:41:02.197Z,88.81
2023-03-08T06:43:31.574Z,89.36
2023-03-08T06:45:59.700Z,90.21
2023-03-08T06:48:27.421Z,90.59
2023-03-08T06:50:55.009Z,90.28
2023-03-08T06:53:22.940Z,90.22
2023-03-08T06:55:50.500Z,90.17
2023-03-08T06:58:18.032Z,90.37
2023-03-08T07:00:47.674Z,89.32
2023-03-08T07:03:15.717Z,89.36
2023-03-08T07:05:43.563Z,90.15
2023-03-08T07:08:11.362Z,91.06
2023-03-08T07:10:39.030Z,92.07
2023-03-08T07:13:06.672Z,90.78
2023-03-08T07:15:34.496Z,89.74
2023-03-08T07:18:03.434Z,90.77
2023-03-08T07:20:31.287Z,90.02
2023-03-08T07:23:01.888Z,90.42
2023-03-08T07:25:29.842Z,90.78
2023-03-08T07:28:00.057Z,91.42
2023-03-08T07:30:28.566Z,92.01
2023-03-08T07:32:56.268Z,93.08
2023-03-08T07:35:25.169Z,94.84
2023-03-08T07:37:53.381Z,95.13
2023-03-08T07:40:21.091Z,95.52
2023-03-08T07:42:48.956Z,95.54
2023-03-08T07:45:16.707Z,97.30
2023-03-08T07:47:44.284Z,98.40
2023-03-08T07:50:12.462Z,97.67
2023-03-08T07:52:45.481Z,98.43
2023-03-08T07:55:13.409Z,97.14
2023-03-08T07:57:41.197Z,96.27
2023-03-08T08:00:10.051Z,97.70
2023-03-08T08:02:38.132Z,100.00
2023-03-08T08:05:06.862Z,99.49
2023-03-08T08:07:34.513Z,99.01
2023-03-08T08:10:03.845Z,99.86
2023-03-08T08:12:31.462Z,99.51
2023-03-08T08:15:00.089Z,99.54
2023-03-08T08:17:27.830Z,99.96
2023-03-08T08:19:55.417Z,99.61
2023-03-08T08:22:23.117Z,99.06
2023-03-08T08:24:50.765Z,99.21
2023-03-08T08:27:19.884Z,99.87
2023-03-08T08:29:49.488Z,100.00
2023-03-08T08:32:17.410Z,100.00
2023-03-08T08:34:45.708Z,100.00
2023-03-08T08:37:15.023Z,100.00
2023-03-08T08:39:42.528Z,100.00
2023-03-08T08:42:10.078Z,100.00
2023-03-08T08:44:39.219Z,100.00
2023-03-08T08:47:06.837Z,100.00
2023-03-08T08:49:34.424Z,99.10
2023-03-08T08:52:02.087Z,99.79
2023-03-08T08:54:30.004Z,97.83
2023-03-08T08:56:57.562Z,97.34
2023-03-08T08:59:25.468Z,96.12
2023-03-08T09:01:54.376Z,96.07
2023-03-08T09:04:22.094Z,98.36
2023-03-08T09:06:49.806Z,98.06
2023-03-08T09:09:19.182Z,98.17
2023-03-08T09:11:54.685Z,97.71
2023-03-08T09:14:23.557Z,98.40
2023-03-08T09:16:52.578Z,98.23
2023-03-08T09:19:21.809Z,96.78
2023-03-08T09:21:49.627Z,98.20
2023-03-08T09:24:17.582Z,99.28
2023-03-08T09:26:47.322Z,100.00
2023-03-08T09:29:15.080Z,98.81
2023-03-08T09:31:47.297Z,97.83
2023-03-08T09:34:15.510Z,96.28
2023-03-08T09:36:45.517Z,94.80
2023-03-08T09:39:14.118Z,93.61
2023-03-08T09:41:51.025Z,92.65
2023-03-08T09:44:43.886Z,92.45
2023-03-08T09:47:19.888Z,93.33
2023-03-08T09:49:52.002Z,92.06
2023-03-08T09:52:33.680Z,93.95
2023-03-08T09:55:04.580Z,93.17
2023-03-08T09:57:39.192Z,92.13
2023-03-08T10:00:15.071Z,92.39
2023-03-08T10:02:54.296Z,91.91
2023-03-08T10:05:25.671Z,93.72
2023-03-08T10:08:02.484Z,92.30
2023-03-08T10:10:40.371Z,92.73
2023-03-08T10:13:33.304Z,91.54
2023-03-08T10:16:16.329Z,94.32
2023-03-08T10:18:49.614Z,93.68
2023-03-08T10:21:19.553Z,93.20
2023-03-08T10:23:53.769Z,92.71
2023-03-08T10:26:21.325Z,91.64
2023-03-08T10:28:50.031Z,93.67
2023-03-08T10:31:22.654Z,94.48
2023-03-08T10:33:54.393Z,93.89
2023-03-08T10:36:24.093Z,95.24
2023-03-08T10:39:04.849Z,98.45
2023-03-08T10:41:39.664Z,98.04
2023-03-08T10:44:07.354Z,98.59
2023-03-08T10:46:35.188Z,99.08
2023-03-08T10:49:10.607Z,100.00
2023-03-08T10:51:38.304Z,99.15
2023-03-08T10:54:12.338Z,98.22
2023-03-08T10:56:44.807Z,98.65
2023-03-08T10:59:19.643Z,95.96
2023-03-08T11:01:53.219Z,96.04
2023-03-08T11:04:22.470Z,97.65
2023-03-08T11:06:50.394Z,100.00
2023-03-08T11:09:25.797Z,100.00
2023-03-08T11:11:53.916Z,100.00
2023-03-08T11:14:21.791Z,100.00
2023-03-08T11:17:03.584Z,100.00
2023-03-08T11:19:38.028Z,100.00
2023-03-08T11:22:17.923Z,100.00
2023-03-08T11:24:59.870Z,100.00
2023-03-08T11:27:39.826Z,100.00
2023-03-08T11:30:19.935Z,100.00
2023-03-08T11:33:13.539Z,100.00
2023-03-08T11:35:50.516Z,100.00
2023-03-08T11:38:21.110Z,100.00
2023-03-08T11:40:59.731Z,100.00
2023-03-08T11:43:41.958Z,100.00
2023-03-08T11:46:18.512Z,100.00
2023-03-08T11:49:11.319Z,100.00
2023-03-08T11:51:46.251Z,100.00
2023-03-08T11:54:19.236Z,98.23
2023-03-08T11:56:55.869Z,96.69
2023-03-08T11:59:33.928Z,95.10
2023-03-08T12:02:10.809Z,94.83
2023-03-08T12:04:44.627Z,95.89
2023-03-08T12:07:20.967Z,97.47
2023-03-08T12:09:56.701Z,99.48
2023-03-08T12:12:31.871Z,99.85
2023-03-08T12:15:07.686Z,98.69
2023-03-08T12:17:41.594Z,98.86
2023-03-08T12:20:14.962Z,99.83
2023-03-08T12:22:48.134Z,99.67
2023-03-08T12:25:25.175Z,99.81
2023-03-08T12:28:01.607Z,99.84
2023-03-08T12:30:42.615Z,98.26
2023-03-08T12:33:13.952Z,96.75
2023-03-08T12:35:52.705Z,94.49
2023-03-08T12:38:34.178Z,94.50
2023-03-08T12:41:04.972Z,95.64
2023-03-08T12:43:36.017Z,94.85
2023-03-08T12:46:07.544Z,96.31
2023-03-08T12:48:38.983Z,97.02
2023-03-08T12:51:18.688Z,97.26
2023-03-08T12:53:57.957Z,96.84
2023-03-08T12:56:32.937Z,96.74
2023-03-08T12:59:03.527Z,98.27
2023-03-08T13:01:38.377Z,97.79
2023-03-08T13:04:39.076Z,100.00
2023-03-08T13:07:23.562Z,99.23
2023-03-08T13:09:57.498Z,96.46
2023-03-08T13:15:24.878Z,96.04
2023-03-08T13:18:02.036Z,94.90
2023-03-08T13:20:50.845Z,95.45
2023-03-08T13:23:27.142Z,95.89
2023-03-08T13:26:06.292Z,96.12
2023-03-08T13:28:46.558Z,95.36
2023-03-08T13:31:20.563Z,95.04
2023-03-08T13:33:50.625Z,95.45
2023-03-08T13:36:23.780Z,95.43
2023-03-08T13:38:59.899Z,94.75
2023-03-08T13:41:38.250Z,94.08
2023-03-08T13:44:08.088Z,94.40
2023-03-08T13:46:42.470Z,93.92
2023-03-08T13:49:16.013Z,94.08
2023-03-08T13:51:45.219Z,95.25
2023-03-08T13:54:17.576Z,95.28
2023-03-08T13:56:45.195Z,94.99
2023-03-08T13:59:19.728Z,95.47
2023-03-08T14:01:50.293Z,96.31
2023-03-08T14:04:30.303Z,95.11
2023-03-08T14:06:59.790Z,96.38
2023-03-08T14:09:28.678Z,97.24
2023-03-08T14:12:00.560Z,97.70
2023-03-08T14:14:31.647Z,96.26
2023-03-08T14:17:01.405Z,95.50
2023-03-08T14:19:32.701Z,96.28
2023-03-08T14:22:03.371Z,95.59
2023-03-08T14:24:33.770Z,95.25
2023-03-08T14:27:02.996Z,94.94
2023-03-08T14:29:31.843Z,94.59
2023-03-08T14:32:09.140Z,96.00
2023-03-08T14:34:39.410Z,97.56
2023-03-08T14:37:15.284Z,96.54
2023-03-08T14:39:45.115Z,98.01
2023-03-08T14:42:21.621Z,98.69
2023-03-08T14:44:54.609Z,98.10
2023-03-08T14:47:26.500Z,100.00
2023-03-08T14:49:58.097Z,99.50
2023-03-08T14:52:28.032Z,99.57
2023-03-08T14:54:55.628Z,100.00
2023-03-08T14:57:25.486Z,99.99
2023-03-08T14:59:54.717Z,98.90
2023-03-08T15:02:22.177Z,100.00
2023-03-08T15:04:51.081Z,99.41
2023-03-08T15:07:22.241Z,98.71
2023-03-08T15:09:52.042Z,99.60
2023-03-08T15:12:19.658Z,100.00
2023-03-08T15:14:47.244Z,100.00
2023-03-08T15:17:14.788Z,100.00
2023-03-08T15:19:42.353Z,100.00
2023-03-08T15:22:14.475Z,100.00
2023-03-08T15:24:42.307Z,100.00
2023-03-08T15:27:14.413Z,100.00
2023-03-08T15:29:42.021Z,100.00
2023-03-08T15:32:09.676Z,100.00
2023-03-08T15:34:39.469Z,100.00
2023-03-08T15:37:07.958Z,100.00
2023-03-08T15:39:36.969Z,100.00
2023-03-08T15:42:04.756Z,100.00
2023-03-08T15:44:32.431Z,98.91
2023-03-08T15:47:01.647Z,99.27
2023-03-08T15:49:29.355Z,100.00
2023-03-08T15:51:56.975Z,100.00
2023-03-08T15:54:26.883Z,100.00
2023-03-08T15:56:55.814Z,99.59
2023-03-08T15:59:23.442Z,100.00
2023-03-08T16:01:51.081Z,100.00
2023-03-08T16:04:18.591Z,100.00
2023-03-08T16:06:46.277Z,100.00
2023-03-08T16:09:14.021Z,100.00
2023-03-08T16:11:41.599Z,100.00
2023-03-08T16:14:10.756Z,100.00
2023-03-08T16:16:45.325Z,100.00
2023-03-08T16:19:13.844Z,100.00
2023-03-08T16:21:41.637Z,100.00
2023-03-08T16:24:09.601Z,100.00
2023-03-08T16:26:37.242Z,100.00
2023-03-08T16:29:04.991Z,100.00
2023-03-08T16:31:34.005Z,100.00
2023-03-08T16:34:03.292Z,100.00
2023-03-08T16:36:30.823Z,100.00
2023-03-08T16:38:58.415Z,100.00
2023-03-08T16:41:37.812Z,100.00
2023-03-08T16:44:06.766Z,100.00
2023-03-08T16:46:36.578Z,100.00
2023-03-08T16:49:04.355Z,100.00
2023-03-08T16:51:37.336Z,100.00
2023-03-08T16:54:06.327Z,100.00
2023-03-08T16:56:33.961Z,100.00
2023-03-08T16:59:02.377Z,100.00
2023-03-08T17:01:31.294Z,100.00
2023-03-08T17:04:03.163Z,100.00
2023-03-08T17:06:33.136Z,100.00
2023-03-08T17:09:00.901Z,100.00
2023-03-08T17:11:31.054Z,100.00
2023-03-08T17:14:01.816Z,100.00
2023-03-08T17:16:31.376Z,100.00
2023-03-08T17:19:01.194Z,100.00
2023-03-08T17:21:31.202Z,100.00
2023-03-08T17:24:00.066Z,100.00
2023-03-08T17:26:27.807Z,100.00
2023-03-08T17:28:56.944Z,100.00
2023-03-08T17:31:25.051Z,100.00
2023-03-08T17:33:53.358Z,100.00
2023-03-08T17:36:24.912Z,100.00
2023-03-08T17:38:53.814Z,100.00
2023-03-08T17:41:22.524Z,100.00
2023-03-08T17:43:50.697Z,100.00
2023-03-08T17:46:21.252Z,100.00
2023-03-08T17:48:50.410Z,100.00
2023-03-08T17:51:20.336Z,100.00
2023-03-08T17:53:49.967Z,100.00
2023-03-08T17:56:19.918Z,100.00
2023-03-08T17:58:48.218Z,100.00
2023-03-08T18:01:17.759Z,100.00
2023-03-08T18:03:46.181Z,100.00
2023-03-08T18:06:19.671Z,100.00
2023-03-08T18:08:48.784Z,100.00
2023-03-08T18:11:16.394Z,100.00
2023-03-08T18:13:44.262Z,100.00
2023-03-08T18:16:12.287Z,100.00
2023-03-08T18:18:39.928Z,100.00
2023-03-08T18:21:13.902Z,100.00
2023-03-08T18:23:43.148Z,100.00
2023-03-08T18:26:13.119Z,100.00
2023-03-08T18:28:41.198Z,100.00
2023-03-08T18:31:10.374Z,100.00
2023-03-08T18:33:38.096Z,100.00
2023-03-08T18:36:06.283Z,100.00
2023-03-08T18:38:34.150Z,100.00
2023-03-08T18:41:01.886Z,100.00
2023-03-08T18:43:38.246Z,100.00
2023-03-08T18:46:15.064Z,100.00
2023-03-08T18:48:53.302Z,100.00
2023-03-08T18:51:36.098Z,100.00
2023-03-08T18:54:10.881Z,100.00
2023-03-08T18:56:39.293Z,100.00
2023-03-08T18:59:09.406Z,100.00
2023-03-08T19:01:37.329Z,100.00
2023-03-08T19:04:07.214Z,100.00
2023-03-08T19:06:56.030Z,100.00
2023-03-08T19:09:24.305Z,100.00
2023-03-08T19:11:51.870Z,100.00
2023-03-08T19:14:20.815Z,100.00
2023-03-08T19:16:48.584Z,100.00
2023-03-08T19:19:18.066Z,100.00
2023-03-08T19:21:48.544Z,100.00
2023-03-08T19:24:17.786Z,100.00
2023-03-08T19:26:47.293Z,100.00
2023-03-08T19:29:17.760Z,100.00
2023-03-08T19:31:50.094Z,100.00
2023-03-08T19:34:17.915Z,100.00
2023-03-08T19:36:47.161Z,100.00
2023-03-08T19:39:16.795Z,100.00
2023-03-08T19:41:45.203Z,100.00
2023-03-08T19:44:12.903Z,100.00
2023-03-08T19:46:40.829Z,100.00
2023-03-08T19:49:13.073Z,100.00
2023-03-08T19:51:40.798Z,100.00
2023-03-08T19:54:08.830Z,100.00
2023-03-08T19:56:37.242Z,100.00
2023-03-08T19:59:05.492Z,100.00
2023-03-08T20:01:33.270Z,100.00
2023-03-08T20:04:00.768Z,100.00
2023-03-08T20:06:32.100Z,100.00
2023-03-08T20:09:00.360Z,100.00
2023-03-08T20:11:28.409Z,100.00
2023-03-08T20:13:56.378Z,100.00
2023-03-08T20:16:24.664Z,100.00
2023-03-08T20:18:54.147Z,100.00
2023-03-08T20:21:23.998Z,100.00
2023-03-08T20:23:55.424Z,100.00
2023-03-08T20:26:23.174Z,100.00
2023-03-08T20:28:50.779Z,100.00
2023-03-08T20:31:18.863Z,100.00
2023-03-08T20:33:47.024Z,100.00
2023-03-08T20:36:14.730Z,100.00
2023-03-08T20:38:42.354Z,100.00
2023-03-08T20:41:18.070Z,100.00
2023-03-08T20:43:47.602Z,100.00
2023-03-08T20:46:17.603Z,100.00
2023-03-08T20:48:46.468Z,100.00
2023-03-08T20:51:15.686Z,100.00
2023-03-08T20:53:43.543Z,100.00
2023-03-08T20:56:14.315Z,100.00
2023-03-08T20:58:42.859Z,100.00
2023-03-08T21:01:11.524Z,100.00
2023-03-08T21:03:40.671Z,100.00
2023-03-08T21:06:12.702Z,100.00
2023-03-08T21:08:40.394Z,100.00
2023-03-08T21:11:08.211Z,100.00
2023-03-08T21:13:38.001Z,100.00
2023-03-08T21:16:08.067Z,100.00
2023-03-08T21:18:35.855Z,100.00
2023-03-08T21:21:03.601Z,100.00
2023-03-08T21:23:31.366Z,100.00
2023-03-08T21:26:00.361Z,100.00
2023-03-08T21:28:28.581Z,100.00
2023-03-08T21:30:57.732Z,100.00
2023-03-08T21:33:25.638Z,100.00
2023-03-08T21:35:53.344Z,100.00
2023-03-08T21:38:22.232Z,100.00
2023-03-08T21:40:50.746Z,100.00
2023-03-08T21:43:18.418Z,100.00
2023-03-08T21:45:45.970Z,100.00
2023-03-08T21:48:15.071Z,100.00
2023-03-08T21:50:42.706Z,100.00
2023-03-08T21:53:10.289Z,100.00
2023-03-08T21:55:39.871Z,100.00
2023-03-08T21:58:07.539Z,100.00
2023-03-08T22:00:35.449Z,100.00
2023-03-08T22:03:03.077Z,100.00
2023-03-08T22:05:32.789Z,100.00
2023-03-08T22:08:00.346Z,100.00
2023-03-08T22:10:27.989Z,100.00
2023-03-08T22:12:55.551Z,100.00
2023-03-08T22:15:23.284Z,100.00
2023-03-08T22:17:52.496Z,100.00
2023-03-08T22:20:20.216Z,100.00
2023-03-08T22:22:49.122Z,100.00
2023-03-08T22:25:16.827Z,100.00
2023-03-08T22:27:44.432Z,100.00
2023-03-08T22:30:13.093Z,100.00
2023-03-08T22:32:41.930Z,100.00
2023-03-08T22:35:10.976Z,100.00
2023-03-08T22:37:38.882Z,100.00
2023-03-08T22:40:11.142Z,100.00
2023-03-08T22:42:38.752Z,100.00
2023-03-08T22:45:07.613Z,100.00
2023-03-08T22:47:35.231Z,100.00
2023-03-08T22:50:03.839Z,100.00
2023-03-08T22:52:31.538Z,100.00
2023-03-08T22:54:59.261Z,100.00
2023-03-08T22:57:28.305Z,100.00
2023-03-08T22:59:56.143Z,100.00
2023-03-08T23:02:24.152Z,100.00
2023-03-08T23:04:52.186Z,100.00
2023-03-08T23:07:19.811Z,100.00
2023-03-08T23:09:47.433Z,100.00
2023-03-08T23:12:15.332Z,100.00
2023-03-08T23:14:45.367Z,100.00
2023-03-08T23:17:13.096Z,100.00
2023-03-08T23:19:45.004Z,100.00
2023-03-08T23:22:13.101Z,100.00
2023-03-08T23:24:40.677Z,100.00
2023-03-08T23:27:08.667Z,100.00
2023-03-08T23:29:37.398Z,100.00
2023-03-08T23:32:07.204Z,100.00
2023-03-08T23:34:34.890Z,100.00
2023-03-08T23:37:04.116Z,100.00
2023-03-08T23:39:31.727Z,100.00
2023-03-08T23:41:59.341Z,100.00
2023-03-08T23:44:27.645Z,100.00
2023-03-08T23:46:55.336Z,100.00
2023-03-08T23:49:24.238Z,100.00
2023-03-08T23:51:51.822Z,100.00
2023-03-08T23:54:19.451Z,100.00
2023-03-08T23:56:47.134Z,100.00
2023-03-08T23:59:18.679Z,100.00
